Time;durP1;ratioP1;P1;durP2;ratioP2;P2;SDS_P1;SDS_P2;PMS_P1;PMS_P2;Temp;Humidity;BMP_temperature;BMP_pressure;BME280_temperature;BME280_humidity;BME280_pressure;Samples;Min_cycle;Max_cycle;Signal;HPM_P1;HPM_P2
2023/10/15 00:01:05;;;;;;;3.80;1.37;;;18.20;61.00;;;;;;5062826;28;21168;-52
2023/10/15 00:03:34;;;;;;;2.20;0.90;;;18.20;61.50;;;;;;5066805;28;20476;-53
2023/10/15 00:06:03;;;;;;;1.17;0.73;;;18.20;62.60;;;;;;5050279;28;20439;-51
2023/10/15 00:08:33;;;;;;;1.70;1.03;;;18.20;61.40;;;;;;5045555;28;20470;-52
2023/10/15 00:11:01;;;;;;;1.07;0.90;;;18.20;61.20;;;;;;5049198;28;20722;-52
2023/10/15 00:13:29;;;;;;;1.60;0.90;;;18.20;61.50;;;;;;5061306;28;20459;-52
2023/10/15 00:15:58;;;;;;;1.30;0.90;;;18.20;61.30;;;;;;5064593;28;20442;-51
2023/10/15 00:18:27;;;;;;;1.30;0.90;;;18.20;61.30;;;;;;5064722;28;20852;-52
2023/10/15 00:20:56;;;;;;;1.80;0.90;;;18.20;61.00;;;;;;5068962;28;20418;-52
2023/10/15 00:23:25;;;;;;;1.93;0.83;;;18.20;61.40;;;;;;5059915;28;20505;-52
2023/10/15 00:25:56;;;;;;;2.07;1.30;;;18.20;60.90;;;;;;5068800;28;21009;-51
2023/10/15 00:28:27;;;;;;;1.03;0.83;;;18.20;61.00;;;;;;5063091;28;20482;-52
2023/10/15 00:30:56;;;;;;;1.20;1.00;;;18.20;61.40;;;;;;5052541;28;20446;-52
2023/10/15 00:33:25;;;;;;;1.93;0.90;;;18.20;61.00;;;;;;5063778;28;20463;-52
2023/10/15 00:35:55;;;;;;;1.63;1.20;;;18.10;61.20;;;;;;5056559;28;20538;-52
2023/10/15 00:38:24;;;;;;;3.60;1.30;;;18.10;61.00;;;;;;5059172;28;20914;-51
2023/10/15 00:41:00;;;;;;;1.20;1.00;;;18.10;61.20;;;;;;5072310;28;20841;-52
2023/10/15 00:43:30;;;;;;;1.87;0.90;;;18.10;61.30;;;;;;5047753;28;20918;-51
2023/10/15 00:45:59;;;;;;;1.57;1.00;;;18.10;61.40;;;;;;5039336;28;20445;-51
2023/10/15 00:48:33;;;;;;;1.20;0.80;;;18.10;61.50;;;;;;5033529;28;20499;-51
2023/10/15 00:51:08;;;;;;;1.63;0.87;;;18.10;61.40;;;;;;5017546;28;20466;-52
2023/10/15 00:53:48;;;;;;;1.87;1.10;;;18.10;61.30;;;;;;5012353;28;20467;-50
2023/10/15 00:56:23;;;;;;;1.40;1.10;;;18.10;60.80;;;;;;5023485;28;20428;-51
2023/10/15 01:01:34;;;;;;;2.73;1.20;;;18.10;61.30;;;;;;5028624;28;20460;-53
2023/10/15 01:04:06;;;;;;;3.40;1.27;;;18.10;61.60;;;;;;5034345;28;20470;-51
2023/10/15 01:06:37;;;;;;;2.63;0.70;;;18.10;61.90;;;;;;5027967;28;20515;-50
2023/10/15 01:09:10;;;;;;;1.30;1.10;;;18.10;63.30;;;;;;5028255;28;20459;-52
2023/10/15 01:11:44;;;;;;;3.00;0.93;;;18.10;61.10;;;;;;5029499;28;20465;-52
2023/10/15 01:14:14;;;;;;;1.70;0.73;;;18.10;63.00;;;;;;5026263;28;20440;-51
2023/10/15 01:16:42;;;;;;;1.60;1.10;;;18.10;61.80;;;;;;5024014;28;20873;-52
2023/10/15 01:19:18;;;;;;;1.50;0.73;;;18.10;61.70;;;;;;5008777;28;20440;-51
2023/10/15 01:21:53;;;;;;;1.80;1.03;;;18.00;61.20;;;;;;5021344;28;20447;-50
2023/10/15 01:24:22;;;;;;;2.23;0.73;;;18.10;61.10;;;;;;5025185;28;20726;-50
2023/10/15 01:27:09;;;;;;;1.63;1.00;;;18.00;61.40;;;;;;5025910;28;20436;-51
2023/10/15 01:29:40;;;;;;;1.70;1.03;;;18.00;61.80;;;;;;5022067;28;20444;-50
2023/10/15 01:32:10;;;;;;;1.03;0.60;;;18.00;61.70;;;;;;5035009;28;20566;-50
2023/10/15 01:34:44;;;;;;;2.17;0.80;;;18.00;61.50;;;;;;5045345;28;20455;-53
2023/10/15 01:37:24;;;;;;;3.07;0.60;;;18.00;61.30;;;;;;5046434;28;20469;-52
2023/10/15 01:40:00;;;;;;;1.67;0.87;;;18.00;61.50;;;;;;5043460;28;20438;-52
2023/10/15 01:42:35;;;;;;;1.57;0.80;;;18.00;61.30;;;;;;5049064;28;20714;-52
2023/10/15 01:45:17;;;;;;;1.40;0.83;;;17.90;61.20;;;;;;5048697;28;20573;-53
2023/10/15 01:48:04;;;;;;;2.53;0.97;;;17.90;61.30;;;;;;5050276;28;20490;-49
2023/10/15 01:50:44;;;;;;;1.90;1.20;;;18.00;62.00;;;;;;5054927;28;20450;-52
2023/10/15 01:53:13;;;;;;;1.10;1.00;;;17.90;61.80;;;;;;5039509;28;20750;-52
2023/10/15 01:55:52;;;;;;;1.80;0.90;;;17.90;61.80;;;;;;5032947;28;20547;-50
2023/10/15 01:58:30;;;;;;;1.30;0.90;;;17.90;61.30;;;;;;5044706;28;20462;-52
2023/10/15 02:01:13;;;;;;;0.93;0.70;;;17.90;61.00;;;;;;5042667;28;20727;-52
2023/10/15 02:03:42;;;;;;;2.83;0.97;;;17.90;61.50;;;;;;5058240;28;20471;-51
2023/10/15 02:06:10;;;;;;;1.00;0.67;;;17.90;61.80;;;;;;5025660;28;20471;-52
2023/10/15 02:08:39;;;;;;;1.73;0.87;;;17.90;61.70;;;;;;5038904;28;20509;-52
2023/10/15 02:11:15;;;;;;;1.10;1.00;;;17.90;60.70;;;;;;5025917;28;20450;-52
2023/10/15 02:13:46;;;;;;;1.10;0.77;;;17.90;61.30;;;;;;5041840;28;20494;-52
2023/10/15 02:16:18;;;;;;;2.73;0.83;;;17.90;61.30;;;;;;5024219;28;20878;-53
2023/10/15 02:18:51;;;;;;;0.93;0.60;;;17.80;61.20;;;;;;5041235;28;20440;-53
2023/10/15 02:21:19;;;;;;;1.43;0.87;;;17.90;61.30;;;;;;5041526;28;20544;-52
2023/10/15 02:23:50;;;;;;;1.33;0.90;;;17.80;61.20;;;;;;5040464;28;20865;-52
2023/10/15 02:26:23;;;;;;;1.53;1.20;;;17.80;61.30;;;;;;5041616;28;20471;-53
2023/10/15 02:28:54;;;;;;;0.90;0.70;;;17.80;60.90;;;;;;5024204;28;20455;-53
2023/10/15 02:31:23;;;;;;;1.83;0.87;;;17.80;61.30;;;;;;5024638;28;20435;-53
2023/10/15 02:33:55;;;;;;;1.60;0.80;;;17.80;60.90;;;;;;5025763;28;20448;-53
2023/10/15 02:36:25;;;;;;;2.07;1.00;;;17.80;61.70;;;;;;5039226;28;20427;-53
2023/10/15 02:38:53;;;;;;;3.47;1.40;;;17.80;61.10;;;;;;5039149;28;20531;-52
2023/10/15 02:41:24;;;;;;;1.17;0.90;;;17.80;60.80;;;;;;5041559;28;20487;-51
2023/10/15 02:43:55;;;;;;;1.13;0.80;;;17.70;62.50;;;;;;5040872;28;20468;-53
2023/10/15 02:46:28;;;;;;;1.20;0.93;;;17.70;61.10;;;;;;5038071;28;20495;-50
2023/10/15 02:48:56;;;;;;;2.40;0.80;;;17.80;61.50;;;;;;5039662;28;20809;-53
2023/10/15 02:51:25;;;;;;;1.47;0.90;;;17.70;61.20;;;;;;5038300;28;20444;-52
2023/10/15 02:53:54;;;;;;;1.20;0.80;;;17.70;61.50;;;;;;5025425;28;20993;-52
2023/10/15 02:56:23;;;;;;;2.83;1.20;;;17.70;61.40;;;;;;5024335;28;20615;-53
2023/10/15 02:58:54;;;;;;;1.97;0.93;;;17.70;60.40;;;;;;5039992;28;20822;-53
2023/10/15 03:01:26;;;;;;;6.70;1.37;;;17.70;60.80;;;;;;5038961;28;20456;-52
2023/10/15 03:03:55;;;;;;;1.10;0.80;;;17.70;60.60;;;;;;5041610;28;20475;-52
2023/10/15 03:06:28;;;;;;;1.40;1.10;;;17.70;61.10;;;;;;5038904;28;21076;-52
2023/10/15 03:08:57;;;;;;;3.00;1.17;;;17.70;61.30;;;;;;5040141;28;21178;-51
2023/10/15 03:11:31;;;;;;;1.50;1.23;;;17.60;60.60;;;;;;5041503;28;20448;-51
2023/10/15 03:14:01;;;;;;;3.00;1.20;;;17.70;61.30;;;;;;5040732;28;20565;-51
2023/10/15 03:16:32;;;;;;;1.93;1.03;;;17.70;61.30;;;;;;5041229;28;20942;-53
2023/10/15 03:19:09;;;;;;;1.90;1.00;;;17.60;61.60;;;;;;5057472;28;20456;-52
2023/10/15 03:21:39;;;;;;;1.70;1.20;;;17.60;61.00;;;;;;5040463;28;20432;-51
2023/10/15 03:24:08;;;;;;;2.10;1.33;;;17.60;60.80;;;;;;5041224;28;20452;-51
2023/10/15 03:26:37;;;;;;;1.40;1.00;;;17.60;61.50;;;;;;5022755;28;20468;-52
2023/10/15 03:29:09;;;;;;;1.90;1.20;;;17.60;61.50;;;;;;5039894;28;20490;-51
2023/10/15 03:31:38;;;;;;;2.10;0.90;;;17.60;61.00;;;;;;5041309;28;20551;-52
2023/10/15 03:34:21;;;;;;;1.33;1.07;;;17.60;61.50;;;;;;5041121;28;20474;-51
2023/10/15 03:36:51;;;;;;;3.53;1.07;;;17.60;60.80;;;;;;5044053;28;20475;-52
2023/10/15 03:39:26;;;;;;;2.70;1.00;;;17.60;60.80;;;;;;5050221;28;22739;-49
2023/10/15 03:42:09;;;;;;;1.20;0.80;;;17.60;60.20;;;;;;5045198;28;20534;-50
2023/10/15 03:44:44;;;;;;;2.50;0.97;;;17.60;61.00;;;;;;5052301;28;20486;-50
2023/10/15 03:47:13;;;;;;;1.47;1.00;;;17.50;60.90;;;;;;5058322;28;20470;-49
2023/10/15 03:49:44;;;;;;;1.20;1.10;;;17.50;61.50;;;;;;5046663;28;20438;-52
2023/10/15 03:52:20;;;;;;;1.00;0.80;;;17.50;61.30;;;;;;5038881;28;21066;-52
2023/10/15 03:54:48;;;;;;;2.03;1.03;;;17.60;61.70;;;;;;5041674;28;20458;-52
2023/10/15 03:57:18;;;;;;;1.50;1.00;;;17.50;61.50;;;;;;5049153;28;20574;-50
2023/10/15 03:59:52;;;;;;;1.30;0.80;;;17.60;60.80;;;;;;5048201;28;20442;-52
2023/10/15 04:02:26;;;;;;;2.00;1.03;;;17.50;61.50;;;;;;5061858;28;20524;-51
2023/10/15 04:05:08;;;;;;;1.23;0.73;;;17.50;61.20;;;;;;5067478;28;20430;-53
2023/10/15 04:07:41;;;;;;;1.43;0.83;;;17.50;61.00;;;;;;5063041;28;20466;-50
2023/10/15 04:10:12;;;;;;;1.10;0.60;;;17.50;61.50;;;;;;5069187;28;20514;-52
2023/10/15 04:12:43;;;;;;;5.03;1.20;;;17.50;61.50;;;;;;5064825;28;20455;-51
2023/10/15 04:15:16;;;;;;;2.07;0.70;;;17.50;61.50;;;;;;5065421;28;20991;-51
2023/10/15 04:17:48;;;;;;;2.80;1.10;;;17.50;61.50;;;;;;5065005;28;20466;-52
2023/10/15 04:20:23;;;;;;;1.27;0.83;;;17.50;61.50;;;;;;5071551;28;20418;-52
2023/10/15 04:22:53;;;;;;;1.53;0.80;;;17.50;61.50;;;;;;5057883;28;20885;-53
2023/10/15 04:25:26;;;;;;;1.50;0.93;;;17.50;61.50;;;;;;5067763;28;20455;-52
2023/10/15 04:27:56;;;;;;;1.70;0.80;;;17.50;61.50;;;;;;5060773;28;21205;-52
2023/10/15 04:30:25;;;;;;;3.43;0.90;;;17.50;61.50;;;;;;5052980;28;20940;-52
2023/10/15 04:32:56;;;;;;;1.80;0.97;;;17.50;61.50;;;;;;5068381;28;20912;-53
2023/10/15 04:35:29;;;;;;;1.90;0.90;;;17.50;61.50;;;;;;5069470;28;20783;-53
2023/10/15 04:37:59;;;;;;;1.83;0.97;;;17.50;61.50;;;;;;5059289;28;20485;-51
2023/10/15 04:40:27;;;;;;;1.30;1.13;;;17.40;61.40;;;;;;5066791;28;20431;-52
2023/10/15 04:42:59;;;;;;;0.93;0.70;;;17.40;61.40;;;;;;5046218;28;20482;-53
2023/10/15 04:45:41;;;;;;;1.47;0.80;;;17.40;61.40;;;;;;5051234;28;20466;-53
2023/10/15 04:48:14;;;;;;;1.53;1.33;;;17.40;61.30;;;;;;5068195;28;20501;-50
2023/10/15 04:50:45;;;;;;;2.53;1.07;;;17.40;61.40;;;;;;5073011;28;20622;-49
2023/10/15 04:53:17;;;;;;;2.67;1.30;;;17.40;61.30;;;;;;5048130;28;20467;-53
2023/10/15 04:55:46;;;;;;;1.83;1.03;;;17.40;61.30;;;;;;5073197;28;20445;-50
2023/10/15 04:58:14;;;;;;;1.30;0.80;;;17.40;61.20;;;;;;5059533;28;20459;-51
2023/10/15 05:00:45;;;;;;;1.90;1.00;;;17.40;61.30;;;;;;5061046;28;20459;-52
2023/10/15 05:03:15;;;;;;;2.80;1.07;;;17.40;61.30;;;;;;5052966;28;20827;-51
2023/10/15 05:05:44;;;;;;;1.30;0.90;;;17.40;61.30;;;;;;5054508;28;20880;-51
2023/10/15 05:08:13;;;;;;;2.50;1.00;;;17.30;61.30;;;;;;5012303;28;20489;-51
2023/10/15 05:10:45;;;;;;;1.70;1.07;;;17.30;61.30;;;;;;5033514;28;21262;-53
2023/10/15 05:13:15;;;;;;;1.47;0.97;;;17.30;61.20;;;;;;5027158;28;20472;-53
2023/10/15 05:15:45;;;;;;;1.80;0.77;;;17.30;61.20;;;;;;5023132;28;20633;-54
2023/10/15 05:18:15;;;;;;;1.10;1.00;;;17.30;61.30;;;;;;5042708;28;20467;-53
2023/10/15 05:20:44;;;;;;;1.43;1.00;;;17.30;61.20;;;;;;5046683;28;20439;-53
2023/10/15 05:23:13;;;;;;;2.00;1.00;;;17.30;61.00;;;;;;5039463;28;20487;-52
2023/10/15 05:25:41;;;;;;;1.27;0.87;;;17.30;61.20;;;;;;5046759;28;20459;-53
2023/10/15 05:28:14;;;;;;;1.97;0.80;;;17.30;61.20;;;;;;5044762;28;20528;-53
2023/10/15 05:30:44;;;;;;;1.87;0.83;;;17.30;61.20;;;;;;5043848;28;20897;-53
2023/10/15 05:33:12;;;;;;;1.57;0.80;;;17.30;61.20;;;;;;5044557;28;20582;-51
2023/10/15 05:35:46;;;;;;;1.57;0.80;;;17.30;61.30;;;;;;5044880;28;20451;-52
2023/10/15 05:38:16;;;;;;;1.53;0.83;;;17.20;61.10;;;;;;5041245;28;20573;-54
2023/10/15 05:40:46;;;;;;;2.30;0.90;;;17.20;61.10;;;;;;5046160;28;20462;-53
2023/10/15 05:43:14;;;;;;;1.33;0.80;;;17.20;61.10;;;;;;5044961;28;21485;-52
2023/10/15 05:45:46;;;;;;;1.27;0.90;;;17.20;61.10;;;;;;5042034;28;20470;-52
2023/10/15 05:48:17;;;;;;;1.50;1.00;;;17.20;61.10;;;;;;5046726;28;20489;-52
2023/10/15 05:50:49;;;;;;;1.20;0.90;;;17.20;61.20;;;;;;5047348;28;20526;-52
2023/10/15 05:53:17;;;;;;;1.30;1.00;;;17.20;61.20;;;;;;5021491;28;20491;-50
2023/10/15 05:55:46;;;;;;;2.73;1.00;;;17.20;61.20;;;;;;5044992;28;20455;-52
2023/10/15 05:58:14;;;;;;;1.40;1.00;;;17.20;61.10;;;;;;5043644;28;20622;-53
2023/10/15 06:00:44;;;;;;;1.23;0.73;;;17.20;61.10;;;;;;5043121;28;20437;-52
2023/10/15 06:03:14;;;;;;;1.63;0.77;;;17.20;61.20;;;;;;5044524;28;20888;-51
2023/10/15 06:05:42;;;;;;;2.37;1.10;;;17.20;61.10;;;;;;5045597;28;20963;-52
2023/10/15 06:08:10;;;;;;;1.70;0.97;;;17.20;61.10;;;;;;5040187;28;20483;-50
2023/10/15 06:10:38;;;;;;;0.90;0.60;;;17.20;61.10;;;;;;5045970;28;20869;-52
2023/10/15 06:13:07;;;;;;;2.03;1.00;;;17.20;61.20;;;;;;5045251;28;20506;-52
2023/10/15 06:15:35;;;;;;;2.20;1.07;;;17.20;61.20;;;;;;5043981;28;20825;-54
2023/10/15 06:18:05;;;;;;;1.10;0.60;;;17.20;61.10;;;;;;5042710;28;20467;-53
2023/10/15 06:20:35;;;;;;;2.97;0.80;;;17.20;61.30;;;;;;5047593;28;20431;-52
2023/10/15 06:23:07;;;;;;;1.40;0.90;;;17.10;61.00;;;;;;5042480;28;20556;-51
2023/10/15 06:25:38;;;;;;;1.10;0.77;;;17.10;61.40;;;;;;5048695;28;20462;-50
2023/10/15 06:28:07;;;;;;;0.93;0.70;;;17.10;61.10;;;;;;5043638;28;20471;-51
2023/10/15 06:30:35;;;;;;;1.10;0.63;;;17.10;61.00;;;;;;5045739;28;20920;-51
2023/10/15 06:33:05;;;;;;;1.10;0.50;;;17.10;61.50;;;;;;5043294;28;20470;-53
2023/10/15 06:35:33;;;;;;;1.77;0.80;;;17.10;61.50;;;;;;5045691;28;20447;-51
2023/10/15 06:38:02;;;;;;;2.47;0.97;;;17.10;61.20;;;;;;5044122;28;20497;-52
2023/10/15 06:40:31;;;;;;;1.30;0.83;;;17.10;61.50;;;;;;5046836;28;20427;-51
2023/10/15 06:43:01;;;;;;;1.20;0.70;;;17.10;61.00;;;;;;5043011;28;20868;-53
2023/10/15 06:45:31;;;;;;;1.53;0.83;;;17.10;61.70;;;;;;5046298;28;20474;-53
2023/10/15 06:48:01;;;;;;;2.40;1.20;;;17.10;63.00;;;;;;5045395;28;21002;-52
2023/10/15 06:50:33;;;;;;;2.30;0.70;;;17.10;61.50;;;;;;5050184;28;20837;-52
2023/10/15 06:53:05;;;;;;;1.50;0.70;;;17.10;61.30;;;;;;5022308;28;20475;-52
2023/10/15 06:55:33;;;;;;;1.20;0.70;;;17.10;61.40;;;;;;5048988;28;20455;-51
2023/10/15 06:58:02;;;;;;;2.03;0.80;;;17.00;61.00;;;;;;5043472;28;20501;-52
2023/10/15 07:00:32;;;;;;;2.00;1.13;;;17.00;61.80;;;;;;5045902;28;20474;-52
2023/10/15 07:03:00;;;;;;;1.47;0.80;;;17.10;61.10;;;;;;5046115;28;20864;-52
2023/10/15 07:05:30;;;;;;;1.07;0.63;;;17.00;61.00;;;;;;5049227;28;20447;-50
2023/10/15 07:07:59;;;;;;;1.87;0.73;;;17.00;61.30;;;;;;5041425;28;20763;-50
2023/10/15 07:10:28;;;;;;;0.90;0.50;;;17.00;61.10;;;;;;5048057;28;20839;-52
2023/10/15 07:12:57;;;;;;;1.50;0.70;;;17.00;61.40;;;;;;5046588;28;20569;-52
2023/10/15 07:15:26;;;;;;;1.20;0.73;;;17.00;61.20;;;;;;5031030;28;20517;-52
2023/10/15 07:17:54;;;;;;;1.20;0.80;;;17.00;61.40;;;;;;5045766;28;20540;-50
2023/10/15 07:20:26;;;;;;;1.00;0.60;;;17.00;61.50;;;;;;5044698;28;20431;-51
2023/10/15 07:23:00;;;;;;;1.23;0.90;;;16.90;62.80;;;;;;5040599;28;20474;-50
2023/10/15 07:25:29;;;;;;;1.93;1.00;;;17.00;61.40;;;;;;5048422;28;20930;-51
2023/10/15 07:27:58;;;;;;;0.90;0.60;;;17.00;61.40;;;;;;5044448;28;20474;-51
2023/10/15 07:30:27;;;;;;;3.60;0.90;;;17.00;61.40;;;;;;5044327;28;20439;-52
2023/10/15 07:32:58;;;;;;;1.63;0.60;;;17.00;61.50;;;;;;5046723;28;20483;-52
2023/10/15 07:35:28;;;;;;;1.70;0.90;;;16.90;61.00;;;;;;5047338;28;20489;-49
2023/10/15 07:38:02;;;;;;;1.53;1.00;;;16.90;61.40;;;;;;5043807;28;20473;-50
2023/10/15 07:40:32;;;;;;;0.90;0.57;;;16.90;61.60;;;;;;5052813;28;20442;-53
2023/10/15 07:43:03;;;;;;;1.13;0.77;;;16.90;61.50;;;;;;5050943;28;20467;-52
2023/10/15 07:45:33;;;;;;;1.50;1.00;;;16.90;61.30;;;;;;5050995;28;20473;-50
2023/10/15 07:48:03;;;;;;;0.80;0.60;;;16.90;61.20;;;;;;5050105;28;20996;-51
2023/10/15 07:50:34;;;;;;;1.27;0.85;;;16.90;61.70;;;;;;5047067;28;20451;-57
2023/10/15 07:53:04;;;;;;;3.53;1.47;;;16.90;62.10;;;;;;5045009;28;20235;-53
2023/10/15 07:55:34;;;;;;;3.47;1.20;;;16.90;60.90;;;;;;5051888;28;21118;-50
2023/10/15 07:58:02;;;;;;;5.03;1.53;;;16.80;60.60;;;;;;5050854;28;20470;-50
2023/10/15 08:00:30;;;;;;;1.67;0.70;;;16.70;59.60;;;;;;5050246;28;20452;-50
2023/10/15 08:03:00;;;;;;;3.47;0.90;;;16.70;60.70;;;;;;5052017;28;20552;-51
2023/10/15 08:05:31;;;;;;;2.77;1.10;;;16.70;60.70;;;;;;5053079;28;20446;-50
2023/10/15 08:08:03;;;;;;;1.93;0.87;;;16.70;60.70;;;;;;5045731;28;20478;-50
2023/10/15 08:10:34;;;;;;;4.00;1.10;;;16.80;60.80;;;;;;5053557;28;20435;-52
2023/10/15 08:13:04;;;;;;;2.67;1.27;;;16.70;60.70;;;;;;5052146;28;20475;-51
2023/10/15 08:15:33;;;;;;;4.07;1.33;;;16.70;60.70;;;;;;5046177;28;20888;-50
2023/10/15 08:18:03;;;;;;;4.60;1.20;;;16.70;60.70;;;;;;5059020;28;20479;-50
2023/10/15 08:20:32;;;;;;;2.40;0.93;;;16.80;60.80;;;;;;5070944;28;20966;-52
2023/10/15 08:23:01;;;;;;;2.77;1.17;;;16.70;60.80;;;;;;5062971;28;20477;-52
2023/10/15 08:25:32;;;;;;;2.90;1.13;;;16.70;60.70;;;;;;5054190;28;20458;-52
2023/10/15 08:28:02;;;;;;;5.13;1.03;;;16.70;60.70;;;;;;5070113;28;20470;-52
2023/10/15 08:30:32;;;;;;;3.40;1.17;;;16.70;60.70;;;;;;5069741;28;20469;-53
2023/10/15 08:33:00;;;;;;;1.00;0.60;;;16.70;60.70;;;;;;5053787;28;20524;-52
2023/10/15 08:35:29;;;;;;;2.90;1.30;;;16.70;60.70;;;;;;5054882;28;20463;-52
2023/10/15 08:37:59;;;;;;;3.00;1.23;;;16.70;60.70;;;;;;5064101;28;20472;-49
2023/10/15 08:40:29;;;;;;;1.47;0.60;;;16.70;60.70;;;;;;5067675;28;20492;-51
2023/10/15 08:43:06;;;;;;;2.17;1.00;;;16.70;60.90;;;;;;5068190;28;20558;-52
2023/10/15 08:45:35;;;;;;;1.17;1.07;;;16.70;60.90;;;;;;5066669;28;20556;-52
2023/10/15 08:48:09;;;;;;;1.27;0.77;;;16.70;60.90;;;;;;5064607;28;20507;-52
2023/10/15 08:50:38;;;;;;;1.27;0.90;;;16.70;61.10;;;;;;5064027;28;20851;-51
2023/10/15 08:53:08;;;;;;;2.17;0.97;;;16.70;61.00;;;;;;5045006;28;20896;-51
2023/10/15 08:55:37;;;;;;;1.47;0.60;;;16.70;61.20;;;;;;5049487;28;20465;-51
2023/10/15 08:58:09;;;;;;;2.47;0.90;;;16.70;61.20;;;;;;5068633;28;20479;-51
2023/10/15 09:00:40;;;;;;;1.60;1.10;;;16.70;61.30;;;;;;5054465;28;21024;-51
2023/10/15 09:03:13;;;;;;;2.07;0.80;;;16.70;61.50;;;;;;5068697;28;20463;-52
2023/10/15 09:05:44;;;;;;;1.03;0.60;;;16.70;61.30;;;;;;5066267;28;20463;-51
2023/10/15 09:08:14;;;;;;;2.47;0.90;;;16.70;61.30;;;;;;5061073;28;20578;-52
2023/10/15 09:10:43;;;;;;;1.73;1.13;;;16.70;61.40;;;;;;5066355;28;20994;-52
2023/10/15 09:13:18;;;;;;;1.33;0.83;;;16.70;61.40;;;;;;5068527;28;20510;-51
2023/10/15 09:15:48;;;;;;;1.90;1.27;;;16.70;61.40;;;;;;5063089;28;20461;-51
2023/10/15 09:18:17;;;;;;;1.07;0.80;;;16.60;61.40;;;;;;5048775;28;20540;-51
2023/10/15 09:20:50;;;;;;;1.77;1.20;;;16.60;61.00;;;;;;5068756;28;20533;-52
2023/10/15 09:23:21;;;;;;;1.10;0.97;;;16.60;61.10;;;;;;5064619;28;20599;-52
2023/10/15 09:25:53;;;;;;;1.60;0.90;;;16.60;61.40;;;;;;5069972;28;20991;-53
2023/10/15 09:28:23;;;;;;;2.17;1.30;;;16.60;61.10;;;;;;5060276;28;20466;-52
2023/10/15 09:31:02;;;;;;;1.33;0.90;;;16.60;61.20;;;;;;5058568;28;20448;-52
2023/10/15 09:33:31;;;;;;;1.47;0.80;;;16.60;61.30;;;;;;5060224;28;20516;-51
2023/10/15 09:36:02;;;;;;;3.43;0.80;;;16.60;61.30;;;;;;5063154;28;21003;-53
2023/10/15 09:38:32;;;;;;;1.03;0.80;;;16.60;61.20;;;;;;5056247;28;20471;-53
2023/10/15 09:41:01;;;;;;;4.00;0.97;;;16.60;61.40;;;;;;5061331;28;20435;-53
2023/10/15 09:43:35;;;;;;;0.90;0.73;;;16.60;60.90;;;;;;5060082;28;20485;-52
2023/10/15 09:46:05;;;;;;;1.17;0.77;;;16.60;61.00;;;;;;5062730;28;20427;-51
2023/10/15 09:48:36;;;;;;;0.90;0.77;;;16.50;61.00;;;;;;5058819;28;20474;-52
2023/10/15 09:51:07;;;;;;;1.00;0.70;;;16.50;61.10;;;;;;5062288;28;20558;-52
2023/10/15 09:53:37;;;;;;;1.60;0.90;;;16.50;61.30;;;;;;5043440;28;20477;-51
2023/10/15 09:56:08;;;;;;;1.80;0.77;;;16.50;61.00;;;;;;5061950;28;20437;-52
2023/10/15 09:58:38;;;;;;;2.57;1.00;;;16.50;61.10;;;;;;5062502;28;20462;-52
2023/10/15 10:01:16;;;;;;;2.00;1.00;;;16.50;61.10;;;;;;5061461;28;20439;-52
2023/10/15 10:04:14;;;;;;;1.53;1.03;;;16.50;61.00;;;;;;5066936;28;20454;-52
2023/10/15 10:06:55;;;;;;;1.80;1.03;;;16.50;61.00;;;;;;5042559;28;20456;-50
2023/10/15 10:09:54;;;;;;;2.10;0.80;;;16.50;61.00;;;;;;5059185;28;20473;-52
2023/10/15 10:12:36;;;;;;;1.30;0.70;;;16.50;61.10;;;;;;5062233;28;20467;-50
2023/10/15 10:15:23;;;;;;;2.43;1.00;;;16.50;61.50;;;;;;5059435;28;20470;-50
2023/10/15 10:17:55;;;;;;;2.10;1.00;;;16.50;61.50;;;;;;5060357;28;21062;-50
2023/10/15 10:20:31;;;;;;;1.97;0.80;;;16.50;61.50;;;;;;5062979;28;21025;-52
2023/10/15 10:23:02;;;;;;;1.77;1.20;;;16.50;61.40;;;;;;5051979;28;20555;-51
2023/10/15 10:25:32;;;;;;;1.23;0.73;;;16.50;61.40;;;;;;5045546;28;20474;-50
2023/10/15 10:28:07;;;;;;;1.50;0.90;;;16.50;61.50;;;;;;5061045;28;20691;-52
2023/10/15 10:30:56;;;;;;;1.27;0.87;;;16.50;61.50;;;;;;5057837;28;20850;-51
2023/10/15 10:33:49;;;;;;;2.03;1.03;;;16.50;61.50;;;;;;5061856;28;20462;-51
2023/10/15 10:36:19;;;;;;;1.70;1.00;;;16.40;61.40;;;;;;5060225;28;20705;-52
2023/10/15 10:38:59;;;;;;;1.20;0.70;;;16.40;61.50;;;;;;5059053;28;20442;-52
2023/10/15 10:41:39;;;;;;;1.53;0.67;;;16.40;61.40;;;;;;5058158;28;20544;-52
2023/10/15 10:44:08;;;;;;;1.33;0.60;;;16.40;61.20;;;;;;5063187;28;21015;-51
2023/10/15 10:46:56;;;;;;;1.60;1.07;;;16.40;61.50;;;;;;5042163;28;20483;-51
2023/10/15 10:49:29;;;;;;;2.90;0.87;;;16.40;61.50;;;;;;5060086;28;20463;-50
2023/10/15 10:52:06;;;;;;;1.60;0.83;;;16.40;61.40;;;;;;5060423;28;20455;-53
2023/10/15 10:54:36;;;;;;;1.13;0.90;;;16.40;61.50;;;;;;5048579;28;20553;-52
2023/10/15 10:57:08;;;;;;;1.00;0.80;;;16.40;61.50;;;;;;5062733;28;20528;-53
2023/10/15 10:59:38;;;;;;;0.90;0.70;;;16.40;61.60;;;;;;5060599;28;20437;-52
2023/10/15 11:02:13;;;;;;;1.40;0.80;;;16.40;61.80;;;;;;5060998;28;20443;-51
2023/10/15 11:04:42;;;;;;;2.07;1.10;;;16.40;61.70;;;;;;5061123;28;20661;-51
2023/10/15 11:07:13;;;;;;;1.50;0.70;;;16.40;61.80;;;;;;5057275;28;20467;-52
2023/10/15 11:09:42;;;;;;;2.37;1.30;;;16.40;61.80;;;;;;5061258;28;20489;-51
2023/10/15 11:12:11;;;;;;;2.80;1.17;;;16.40;61.70;;;;;;5063636;28;21000;-52
2023/10/15 11:14:40;;;;;;;1.23;0.70;;;16.40;61.40;;;;;;5048598;28;20551;-53
2023/10/15 11:17:10;;;;;;;1.80;0.73;;;16.40;61.40;;;;;;5043290;28;20463;-50
2023/10/15 11:19:39;;;;;;;2.33;0.90;;;16.30;61.70;;;;;;5061089;28;20492;-50
2023/10/15 11:22:09;;;;;;;1.40;0.70;;;16.40;61.80;;;;;;5047762;28;20495;-52
2023/10/15 11:24:37;;;;;;;1.97;0.70;;;16.30;61.90;;;;;;5061829;28;20987;-53
2023/10/15 11:27:11;;;;;;;1.80;1.00;;;16.40;62.00;;;;;;5057291;28;20525;-50
2023/10/15 11:29:42;;;;;;;2.17;0.83;;;16.40;61.90;;;;;;5058803;28;20466;-52
2023/10/15 11:32:12;;;;;;;2.30;0.70;;;16.30;61.80;;;;;;5044169;28;20442;-51
2023/10/15 11:34:41;;;;;;;1.60;1.00;;;16.30;61.30;;;;;;5045452;28;20514;-51
2023/10/15 11:37:10;;;;;;;1.97;1.00;;;16.30;61.50;;;;;;5042863;28;20482;-53
2023/10/15 11:39:47;;;;;;;1.57;0.80;;;16.30;61.60;;;;;;5064340;28;20432;-53
2023/10/15 11:42:18;;;;;;;1.40;0.90;;;16.30;61.80;;;;;;5058743;28;21054;-53
2023/10/15 11:44:55;;;;;;;2.27;0.70;;;16.30;61.90;;;;;;5049129;28;20458;-52
2023/10/15 11:47:27;;;;;;;1.63;0.90;;;16.30;61.60;;;;;;5056909;28;20461;-53
2023/10/15 11:49:59;;;;;;;0.97;0.73;;;16.30;61.50;;;;;;5059213;28;20521;-52
2023/10/15 11:52:27;;;;;;;1.70;0.80;;;16.30;61.60;;;;;;5054324;28;21069;-52
2023/10/15 11:54:57;;;;;;;0.87;0.60;;;16.30;61.90;;;;;;5046711;28;20466;-53
2023/10/15 11:57:26;;;;;;;1.00;0.63;;;16.30;62.10;;;;;;5048031;28;20474;-52
2023/10/15 11:59:56;;;;;;;1.00;0.60;;;16.30;62.00;;;;;;5063691;28;20514;-53
2023/10/15 12:02:28;;;;;;;0.80;0.70;;;16.30;61.60;;;;;;5044273;28;20449;-52
2023/10/15 12:05:01;;;;;;;2.50;0.50;;;16.30;62.00;;;;;;5061177;28;20816;-53
2023/10/15 12:07:30;;;;;;;1.33;0.60;;;16.30;62.00;;;;;;5044473;28;20438;-53
2023/10/15 12:09:58;;;;;;;1.10;0.60;;;16.30;61.80;;;;;;5065782;28;20459;-52
2023/10/15 12:12:28;;;;;;;1.63;0.80;;;16.30;61.70;;;;;;5060789;28;20936;-52
2023/10/15 12:14:57;;;;;;;1.43;0.77;;;16.30;61.80;;;;;;5045373;28;20495;-52
2023/10/15 12:17:27;;;;;;;0.87;0.77;;;16.20;61.60;;;;;;5047096;28;20473;-52
2023/10/15 12:19:56;;;;;;;1.20;0.60;;;16.30;62.00;;;;;;5064012;28;20549;-53
2023/10/15 12:22:43;;;;;;;3.30;0.87;;;16.30;62.00;;;;;;5046073;28;20474;-52
2023/10/15 12:25:12;;;;;;;1.97;0.80;;;16.30;61.90;;;;;;5064640;28;20470;-50
2023/10/15 12:27:40;;;;;;;1.37;0.80;;;16.30;62.00;;;;;;5054778;28;21148;-52
2023/10/15 12:30:19;;;;;;;1.40;0.80;;;16.20;61.90;;;;;;5046867;28;20466;-51
2023/10/15 12:32:49;;;;;;;1.00;0.47;;;16.20;61.80;;;;;;5064994;28;20538;-51
2023/10/15 12:35:19;;;;;;;1.90;1.17;;;16.30;61.80;;;;;;5064073;28;20534;-52
2023/10/15 12:37:49;;;;;;;1.43;0.60;;;16.20;61.70;;;;;;5062088;28;20474;-53
2023/10/15 12:40:23;;;;;;;2.10;0.77;;;16.20;61.90;;;;;;5062159;28;22786;-51
2023/10/15 12:42:52;;;;;;;1.57;0.60;;;16.20;61.50;;;;;;5059968;28;20466;-51
2023/10/15 12:45:21;;;;;;;1.73;0.60;;;16.30;61.80;;;;;;5059830;28;20520;-53
2023/10/15 12:47:50;;;;;;;1.03;0.70;;;16.30;61.90;;;;;;5046846;28;20573;-50
2023/10/15 12:50:19;;;;;;;1.70;0.70;;;16.20;61.70;;;;;;5062836;28;20504;-52
2023/10/15 12:52:48;;;;;;;1.23;0.60;;;16.20;62.10;;;;;;5046808;28;20625;-52
2023/10/15 12:55:18;;;;;;;1.07;0.77;;;16.30;61.80;;;;;;5051908;28;20532;-51
2023/10/15 12:57:47;;;;;;;0.90;0.60;;;16.20;61.60;;;;;;5050130;28;21029;-52
2023/10/15 13:00:18;;;;;;;1.50;0.80;;;16.20;61.90;;;;;;5065698;28;20443;-52
2023/10/15 13:02:49;;;;;;;1.00;0.70;;;16.20;62.00;;;;;;5072156;28;20470;-53
2023/10/15 13:05:21;;;;;;;1.00;0.80;;;16.20;61.80;;;;;;5053449;28;20457;-52
2023/10/15 13:07:51;;;;;;;0.80;0.40;;;16.20;61.80;;;;;;5056362;28;20486;-52
2023/10/15 13:10:20;;;;;;;1.17;0.60;;;16.20;61.40;;;;;;5063560;28;20841;-51
2023/10/15 13:12:51;;;;;;;1.40;0.53;;;16.20;61.90;;;;;;5050085;28;20893;-53